Time;durP1;ratioP1;P1;durP2;ratioP2;P2;SDS_P1;SDS_P2;PMS_P1;PMS_P2;Temp;Humidity;BMP_temperature;BMP_pressure;BME280_temperature;BME280_humidity;BME280_pressure;Samples;Min_cycle;Max_cycle;Signal;HPM_P1;HPM_P2
2021/09/29 00:01:17;;;;;;;5.20;1.63;;;13.00;99.90;;;;;;4996863;28;20153;-75
2021/09/29 00:03:42;;;;;;;5.75;0.88;;;13.00;99.90;;;;;;4996255;28;20469;-76
2021/09/29 00:06:08;;;;;;;2.47;1.05;;;13.00;99.90;;;;;;4996036;28;20033;-76
2021/09/29 00:08:33;;;;;;;4.65;1.40;;;13.10;99.90;;;;;;4997092;28;20041;-76
2021/09/29 00:10:59;;;;;;;3.67;0.88;;;13.10;99.90;;;;;;4997775;28;20129;-76
2021/09/29 00:13:26;;;;;;;3.28;0.60;;;13.10;99.90;;;;;;4996264;28;20392;-76
2021/09/29 00:15:52;;;;;;;0.98;0.68;;;13.00;99.90;;;;;;4998037;28;20471;-76
2021/09/29 00:18:19;;;;;;;5.38;0.90;;;13.00;99.90;;;;;;4997521;28;20102;-76
2021/09/29 00:20:45;;;;;;;4.80;0.75;;;13.00;99.90;;;;;;4996004;28;20034;-76
2021/09/29 00:23:10;;;;;;;4.40;0.70;;;12.90;99.90;;;;;;4997361;28;20030;-76
2021/09/29 00:25:36;;;;;;;2.78;0.70;;;12.80;99.90;;;;;;4997658;28;20011;-76
2021/09/29 00:28:02;;;;;;;6.15;1.23;;;12.80;99.90;;;;;;4997663;28;20030;-77
2021/09/29 00:30:31;;;;;;;5.88;1.48;;;12.80;99.90;;;;;;4997270;28;20080;-77
2021/09/29 00:33:01;;;;;;;5.65;1.58;;;12.70;99.90;;;;;;4997520;28;20080;-77
2021/09/29 00:35:26;;;;;;;4.28;1.02;;;12.70;99.90;;;;;;4995928;28;20022;-76
2021/09/29 00:37:52;;;;;;;4.22;0.82;;;12.70;99.90;;;;;;4997634;28;20092;-76
2021/09/29 00:40:17;;;;;;;2.75;0.77;;;12.70;99.90;;;;;;4997277;28;20030;-76
2021/09/29 00:42:43;;;;;;;2.58;0.88;;;12.60;99.90;;;;;;4998521;28;20461;-77
2021/09/29 00:45:11;;;;;;;3.58;1.17;;;12.60;99.90;;;;;;5000983;28;20022;-76
2021/09/29 00:47:37;;;;;;;5.15;1.25;;;12.60;99.90;;;;;;5000537;28;20081;-75
2021/09/29 00:50:08;;;;;;;7.15;1.00;;;12.60;99.90;;;;;;5000219;28;20034;-76
2021/09/29 00:52:34;;;;;;;7.28;0.77;;;12.60;99.90;;;;;;5001010;28;20033;-77
2021/09/29 00:55:00;;;;;;;2.42;0.52;;;12.60;99.90;;;;;;4999339;28;20097;-77
2021/09/29 00:57:26;;;;;;;4.90;1.25;;;12.60;99.90;;;;;;5001126;28;20065;-76
2021/09/29 00:59:51;;;;;;;3.88;0.90;;;12.60;99.90;;;;;;4999547;28;20030;-77
2021/09/29 01:02:19;;;;;;;7.40;1.65;;;12.70;99.90;;;;;;4999234;28;20054;-77
2021/09/29 01:04:46;;;;;;;2.70;0.82;;;12.70;99.90;;;;;;4999268;28;20028;-77
2021/09/29 01:07:24;;;;;;;2.65;1.05;;;12.80;99.90;;;;;;4998841;28;20549;-77
2021/09/29 01:10:10;;;;;;;5.68;1.23;;;12.80;99.90;;;;;;4999174;28;20100;-77
2021/09/29 01:12:57;;;;;;;5.20;1.02;;;12.80;99.90;;;;;;5000595;28;20023;-76
2021/09/29 01:15:29;;;;;;;3.17;1.02;;;12.80;99.90;;;;;;4998729;28;20126;-77
2021/09/29 01:17:59;;;;;;;6.82;0.82;;;12.80;99.90;;;;;;5000135;28;20029;-77
2021/09/29 01:20:33;;;;;;;7.43;0.95;;;12.80;99.90;;;;;;4999098;28;20018;-77
2021/09/29 01:23:33;;;;;;;4.57;0.93;;;12.80;99.90;;;;;;4998818;28;20026;-75
2021/09/29 01:25:58;;;;;;;3.55;1.13;;;12.70;99.90;;;;;;4993522;28;20035;-75
2021/09/29 01:28:32;;;;;;;1.92;0.45;;;12.70;99.90;;;;;;4999809;28;20110;-76
2021/09/29 01:30:59;;;;;;;1.58;0.68;;;12.70;99.90;;;;;;4999984;28;20026;-76
2021/09/29 01:33:27;;;;;;;3.08;0.60;;;12.70;99.90;;;;;;5000127;28;20034;-76
2021/09/29 01:35:53;;;;;;;6.10;1.60;;;12.70;99.90;;;;;;5000181;28;20045;-76
2021/09/29 01:38:19;;;;;;;3.50;0.70;;;12.60;99.90;;;;;;4998326;28;20289;-76
2021/09/29 01:40:45;;;;;;;5.68;0.95;;;12.70;99.90;;;;;;5000088;28;20022;-76
2021/09/29 01:43:11;;;;;;;2.50;1.15;;;12.70;99.90;;;;;;4998243;28;20042;-76
2021/09/29 01:45:38;;;;;;;3.97;1.35;;;12.80;99.90;;;;;;5000124;28;20030;-76
2021/09/29 01:48:04;;;;;;;8.52;1.40;;;12.80;99.90;;;;;;4999780;28;20446;-77
2021/09/29 01:50:31;;;;;;;1.95;0.82;;;12.80;99.90;;;;;;4999915;28;20050;-76
2021/09/29 01:52:58;;;;;;;5.47;0.73;;;12.80;99.90;;;;;;4997809;28;20415;-76
2021/09/29 01:55:28;;;;;;;4.85;0.77;;;12.80;99.90;;;;;;4998400;28;20468;-75
2021/09/29 01:57:55;;;;;;;3.13;0.43;;;12.80;99.90;;;;;;4999335;28;20049;-76
2021/09/29 02:00:23;;;;;;;2.70;0.65;;;12.90;99.90;;;;;;4997872;28;20049;-75
2021/09/29 02:02:49;;;;;;;4.03;0.97;;;12.90;99.90;;;;;;4999419;28;20073;-76
2021/09/29 02:05:25;;;;;;;3.30;0.70;;;12.90;99.90;;;;;;4998341;28;20261;-75
2021/09/29 02:07:51;;;;;;;2.60;0.73;;;12.90;99.90;;;;;;4999181;28;20026;-76
2021/09/29 02:10:16;;;;;;;1.90;0.52;;;12.90;99.90;;;;;;4997862;28;20541;-76
2021/09/29 02:12:42;;;;;;;3.50;1.05;;;12.90;99.90;;;;;;4999479;28;20026;-76
2021/09/29 02:15:08;;;;;;;5.28;1.13;;;12.80;99.90;;;;;;4999440;28;20050;-75
2021/09/29 02:17:33;;;;;;;1.98;0.65;;;12.80;99.90;;;;;;4998620;28;20073;-75
2021/09/29 02:19:59;;;;;;;5.07;1.00;;;12.70;99.90;;;;;;4998388;28;20478;-75
2021/09/29 02:22:24;;;;;;;5.07;0.95;;;12.70;99.90;;;;;;4998703;28;20022;-75
2021/09/29 02:24:50;;;;;;;3.05;0.65;;;12.70;99.90;;;;;;4997825;28;20030;-75
2021/09/29 02:27:15;;;;;;;7.90;0.85;;;12.70;99.90;;;;;;4997741;28;20399;-75
2021/09/29 02:29:41;;;;;;;3.25;1.00;;;12.70;99.90;;;;;;4999165;28;20033;-75
2021/09/29 02:32:07;;;;;;;5.07;0.50;;;12.70;99.90;;;;;;4998762;28;20041;-76
2021/09/29 02:34:33;;;;;;;4.63;0.65;;;12.70;99.90;;;;;;4997719;28;20034;-77
2021/09/29 02:36:59;;;;;;;3.97;0.80;;;12.70;99.90;;;;;;4997382;28;20033;-77
2021/09/29 02:39:24;;;;;;;3.15;0.82;;;12.80;99.90;;;;;;4997334;28;20023;-77
2021/09/29 02:41:50;;;;;;;3.17;0.40;;;12.80;99.90;;;;;;4998552;28;20026;-76
2021/09/29 02:44:15;;;;;;;10.05;1.90;;;12.80;99.90;;;;;;4998984;28;20019;-77
2021/09/29 02:46:42;;;;;;;7.93;1.85;;;12.80;99.90;;;;;;4997297;28;20537;-76
2021/09/29 02:49:09;;;;;;;4.43;0.80;;;12.80;99.90;;;;;;4998365;28;20030;-76
2021/09/29 02:51:35;;;;;;;7.13;0.90;;;12.90;99.90;;;;;;4998552;28;20049;-76
2021/09/29 02:54:01;;;;;;;4.97;1.10;;;12.90;99.90;;;;;;4997215;28;20030;-75
2021/09/29 02:56:26;;;;;;;4.70;0.75;;;12.90;99.90;;;;;;4997479;28;20475;-76
2021/09/29 02:58:57;;;;;;;2.60;0.40;;;13.40;99.90;;;;;;4998183;28;20038;-76
2021/09/29 03:01:22;;;;;;;6.10;1.20;;;12.90;99.90;;;;;;4997570;28;20050;-76
2021/09/29 03:03:48;;;;;;;6.72;0.90;;;12.90;99.90;;;;;;4997090;28;20019;-76
2021/09/29 03:06:14;;;;;;;3.30;0.55;;;13.00;99.90;;;;;;4996740;28;20029;-76
2021/09/29 03:08:39;;;;;;;5.90;0.50;;;13.00;99.90;;;;;;4998470;28;20084;-76
2021/09/29 03:11:05;;;;;;;7.28;0.60;;;13.00;99.90;;;;;;4997214;28;20538;-76
2021/09/29 03:13:30;;;;;;;2.22;0.52;;;13.00;99.90;;;;;;4997835;28;20027;-76
2021/09/29 03:15:56;;;;;;;3.47;0.45;;;13.00;99.90;;;;;;4997023;28;20065;-76
2021/09/29 03:18:22;;;;;;;6.95;0.30;;;13.00;99.90;;;;;;4998190;28;20030;-76
2021/09/29 03:20:47;;;;;;;6.47;1.55;;;13.10;99.90;;;;;;4998215;28;20015;-76
2021/09/29 03:23:13;;;;;;;2.53;0.30;;;13.10;99.90;;;;;;4997964;28;20021;-76
2021/09/29 03:25:39;;;;;;;4.80;1.33;;;13.10;99.90;;;;;;4999186;28;20054;-76
2021/09/29 03:28:05;;;;;;;4.63;1.92;;;13.10;99.90;;;;;;4996671;28;20124;-76
2021/09/29 03:30:31;;;;;;;5.20;0.40;;;13.30;99.90;;;;;;4997101;28;20034;-76
2021/09/29 03:32:57;;;;;;;3.42;0.82;;;13.20;99.90;;;;;;4997771;28;20040;-76
2021/09/29 03:35:24;;;;;;;3.17;0.65;;;13.10;99.90;;;;;;4996447;28;20026;-76
2021/09/29 03:37:50;;;;;;;2.92;0.77;;;13.10;99.90;;;;;;4997624;28;20022;-76
2021/09/29 03:40:16;;;;;;;4.18;1.00;;;13.10;99.90;;;;;;4996681;28;20426;-76
2021/09/29 03:42:43;;;;;;;6.97;0.85;;;13.10;99.90;;;;;;4997994;28;20057;-76
2021/09/29 03:45:11;;;;;;;3.10;0.20;;;13.10;99.90;;;;;;4996773;28;20092;-76
2021/09/29 03:47:36;;;;;;;2.10;0.57;;;13.20;99.90;;;;;;4997129;28;20050;-78
2021/09/29 03:50:03;;;;;;;3.28;0.28;;;13.20;99.90;;;;;;4997776;28;20038;-77
2021/09/29 03:52:29;;;;;;;3.05;0.85;;;13.20;99.90;;;;;;4998164;28;20091;-77
2021/09/29 03:54:55;;;;;;;4.60;0.95;;;13.10;99.90;;;;;;4996928;28;20050;-77
2021/09/29 03:57:20;;;;;;;2.15;0.50;;;13.10;99.90;;;;;;4996471;28;20019;-77
2021/09/29 03:59:46;;;;;;;4.93;0.80;;;13.10;99.90;;;;;;4998804;28;20053;-77
2021/09/29 04:02:11;;;;;;;2.47;0.30;;;13.10;99.90;;;;;;4998141;28;20029;-77
2021/09/29 04:04:37;;;;;;;6.88;0.65;;;13.10;99.90;;;;;;4997475;28;20022;-77
2021/09/29 04:07:03;;;;;;;4.05;0.85;;;13.10;99.90;;;;;;4995849;28;20388;-77
2021/09/29 04:09:29;;;;;;;6.63;0.50;;;13.10;99.90;;;;;;4998029;28;20022;-77
2021/09/29 04:11:54;;;;;;;3.63;0.85;;;13.20;99.90;;;;;;4996537;28;20015;-76
2021/09/29 04:14:20;;;;;;;4.13;0.70;;;13.20;99.90;;;;;;4997471;28;20054;-76
2021/09/29 04:16:49;;;;;;;8.57;1.25;;;13.20;99.90;;;;;;4999261;28;20073;-76
2021/09/29 04:19:15;;;;;;;;;;;13.20;99.90;;;;;;5000691;28;20022;-76
2021/09/29 04:21:41;;;;;;;1.35;0.50;;;13.20;99.90;;;;;;5000461;28;19912;-76
2021/09/29 04:24:09;;;;;;;4.85;0.80;;;13.20;99.90;;;;;;5001294;28;20030;-77
2021/09/29 04:26:37;;;;;;;3.10;0.20;;;13.20;99.90;;;;;;5001457;28;20407;-77
2021/09/29 04:29:02;;;;;;;1.77;0.40;;;13.20;99.90;;;;;;5000121;28;20118;-77
2021/09/29 04:31:28;;;;;;;3.72;0.70;;;13.20;99.90;;;;;;5000096;28;20074;-77
2021/09/29 04:33:54;;;;;;;5.88;0.52;;;14.90;99.90;;;;;;5000104;28;20030;-77
2021/09/29 04:36:19;;;;;;;4.20;1.20;;;13.20;99.90;;;;;;4997415;28;20031;-77
2021/09/29 04:38:45;;;;;;;3.00;0.50;;;13.10;99.90;;;;;;4997266;28;20061;-77
2021/09/29 04:41:11;;;;;;;1.25;0.30;;;13.00;99.90;;;;;;4996467;28;20379;-77
2021/09/29 04:43:36;;;;;;;5.95;0.77;;;13.10;99.90;;;;;;4997238;28;20026;-77
2021/09/29 04:46:02;;;;;;;2.60;0.88;;;13.10;99.90;;;;;;4997463;28;20026;-77
2021/09/29 04:48:28;;;;;;;6.57;0.52;;;13.00;99.90;;;;;;4997116;28;20395;-77
2021/09/29 04:50:53;;;;;;;2.97;0.95;;;13.00;99.90;;;;;;4995870;28;20450;-77
2021/09/29 04:53:19;;;;;;;4.55;0.50;;;13.00;99.90;;;;;;4996408;28;20117;-77
2021/09/29 04:55:45;;;;;;;2.60;0.43;;;13.00;99.90;;;;;;4997354;28;20073;-77
2021/09/29 04:58:11;;;;;;;5.60;0.63;;;13.00;99.90;;;;;;4997100;28;20022;-77
2021/09/29 05:00:37;;;;;;;8.02;1.85;;;13.00;99.90;;;;;;4995645;28;20019;-76
2021/09/29 05:03:03;;;;;;;2.35;0.55;;;13.00;99.90;;;;;;4997134;28;20026;-76
2021/09/29 05:05:33;;;;;;;6.05;0.50;;;12.90;99.90;;;;;;4997361;28;20053;-74
2021/09/29 05:08:00;;;;;;;2.22;0.35;;;12.90;99.90;;;;;;4997945;28;20506;-77
2021/09/29 05:10:44;;;;;;;2.40;0.50;;;12.90;99.90;;;;;;5000382;28;20026;-77
2021/09/29 05:13:16;;;;;;;2.42;0.43;;;12.90;99.90;;;;;;4996893;28;20027;-77
2021/09/29 05:15:41;;;;;;;3.28;0.50;;;12.90;99.90;;;;;;4996541;28;20034;-76
2021/09/29 05:18:07;;;;;;;5.00;0.50;;;12.90;99.90;;;;;;4997185;28;20033;-76
2021/09/29 05:20:33;;;;;;;6.55;0.30;;;12.80;99.90;;;;;;4998915;28;20054;-76
2021/09/29 05:22:59;;;;;;;6.20;1.38;;;12.80;99.90;;;;;;4995279;28;20015;-76
2021/09/29 05:25:24;;;;;;;2.63;0.60;;;12.70;99.90;;;;;;4996182;28;20030;-75
2021/09/29 05:27:51;;;;;;;3.13;0.55;;;12.70;99.90;;;;;;4995483;28;20037;-74
2021/09/29 05:30:17;;;;;;;3.20;0.75;;;12.60;99.90;;;;;;4996408;28;20038;-73
2021/09/29 05:32:43;;;;;;;9.25;0.47;;;12.60;99.90;;;;;;4996322;28;20028;-75
2021/09/29 05:35:08;;;;;;;4.28;0.60;;;12.60;99.90;;;;;;4996444;28;20427;-75
2021/09/29 05:37:34;;;;;;;4.03;0.30;;;12.70;99.90;;;;;;4995943;28;20050;-75
2021/09/29 05:40:00;;;;;;;2.88;0.50;;;12.70;99.90;;;;;;4996187;28;20022;-76
2021/09/29 05:42:25;;;;;;;4.53;0.85;;;12.70;99.90;;;;;;4994761;28;20073;-75
2021/09/29 05:44:51;;;;;;;2.65;0.70;;;12.70;99.90;;;;;;4996171;28;20014;-74
2021/09/29 05:47:16;;;;;;;5.03;0.20;;;12.70;99.90;;;;;;4994411;28;20046;-75
2021/09/29 05:49:42;;;;;;;4.05;0.30;;;12.70;99.90;;;;;;4995837;28;20045;-75
2021/09/29 05:52:08;;;;;;;5.45;0.30;;;12.60;99.90;;;;;;4993853;28;20029;-75
2021/09/29 05:54:34;;;;;;;2.75;0.57;;;12.70;99.90;;;;;;4995415;28;20117;-73
2021/09/29 05:57:00;;;;;;;2.70;0.73;;;12.60;99.90;;;;;;4995602;28;20120;-74
2021/09/29 05:59:25;;;;;;;4.78;0.68;;;12.60;99.90;;;;;;4995158;28;20480;-75
2021/09/29 06:01:52;;;;;;;1.17;0.30;;;12.50;99.90;;;;;;4995690;28;20378;-76
2021/09/29 06:04:17;;;;;;;2.05;0.22;;;12.60;99.90;;;;;;4995536;28;20387;-75
2021/09/29 06:06:43;;;;;;;2.08;0.32;;;12.50;99.90;;;;;;4995476;28;20024;-76
2021/09/29 06:09:09;;;;;;;6.00;0.55;;;12.50;99.90;;;;;;4995536;28;20033;-75
2021/09/29 06:11:34;;;;;;;3.85;0.50;;;12.50;99.90;;;;;;4995516;28;20498;-75
2021/09/29 06:14:02;;;;;;;2.25;0.20;;;12.60;99.90;;;;;;4995387;28;20053;-76
2021/09/29 06:16:28;;;;;;;4.22;1.00;;;12.60;99.90;;;;;;4994190;28;20046;-76
2021/09/29 06:18:54;;;;;;;1.17;0.30;;;12.50;99.90;;;;;;4993957;28;20065;-76
2021/09/29 06:21:20;;;;;;;3.08;0.30;;;12.60;99.90;;;;;;4995353;28;20022;-74
2021/09/29 06:23:46;;;;;;;4.18;0.70;;;12.60;99.90;;;;;;4995534;28;20534;-73
2021/09/29 06:26:12;;;;;;;6.70;1.10;;;12.60;99.90;;;;;;4995242;28;20026;-76
2021/09/29 06:28:38;;;;;;;2.03;0.25;;;12.70;99.90;;;;;;4994017;28;20387;-75
2021/09/29 06:31:07;;;;;;;9.18;0.45;;;12.80;99.90;;;;;;4995291;28;20080;-73
2021/09/29 06:33:33;;;;;;;4.68;0.57;;;12.80;99.90;;;;;;4995790;28;20037;-76
2021/09/29 06:36:00;;;;;;;2.95;0.95;;;12.80;99.90;;;;;;4995096;28;20022;-76
2021/09/29 06:38:26;;;;;;;0.57;0.17;;;12.90;99.90;;;;;;4994876;28;20030;-76
2021/09/29 06:40:51;;;;;;;0.80;0.20;;;12.90;99.90;;;;;;4993721;28;20548;-75
2021/09/29 06:43:17;;;;;;;4.03;0.30;;;13.10;99.90;;;;;;4994881;28;20108;-75
2021/09/29 06:45:43;;;;;;;3.25;0.38;;;13.10;99.90;;;;;;4993736;28;20022;-76
2021/09/29 06:48:10;;;;;;;4.32;0.50;;;13.20;99.90;;;;;;4994626;28;20392;-76
2021/09/29 06:50:37;;;;;;;3.03;0.30;;;13.20;99.90;;;;;;4995130;28;20034;-76
2021/09/29 06:53:03;;;;;;;2.80;0.57;;;13.20;99.90;;;;;;4994615;28;20058;-76
2021/09/29 06:55:29;;;;;;;2.22;0.57;;;13.30;99.90;;;;;;4993450;28;20068;-77
2021/09/29 06:57:55;;;;;;;2.55;0.30;;;13.30;99.90;;;;;;4994583;28;20062;-76
2021/09/29 07:00:22;;;;;;;0.75;0.17;;;13.30;99.90;;;;;;4994577;28;20022;-76
2021/09/29 07:02:47;;;;;;;6.68;0.80;;;13.30;99.90;;;;;;4994611;28;20023;-76
2021/09/29 07:05:14;;;;;;;3.92;0.15;;;13.30;99.90;;;;;;4994700;28;20033;-76
2021/09/29 07:07:40;;;;;;;1.13;0.17;;;13.30;99.90;;;;;;4994985;28;20411;-74
2021/09/29 07:10:07;;;;;;;2.60;0.22;;;13.20;99.90;;;;;;4994534;28;20038;-75
2021/09/29 07:12:38;;;;;;;5.88;0.73;;;13.20;99.90;;;;;;4994423;28;20030;-75
2021/09/29 07:15:05;;;;;;;3.33;0.30;;;13.30;99.90;;;;;;4994333;28;20031;-75
2021/09/29 07:17:31;;;;;;;1.77;0.25;;;13.20;99.90;;;;;;4994268;28;20031;-75
2021/09/29 07:19:58;;;;;;;5.53;0.20;;;13.30;99.90;;;;;;4994316;28;20217;-75
2021/09/29 07:22:24;;;;;;;4.55;0.35;;;13.30;99.90;;;;;;4993023;28;20023;-75
2021/09/29 07:24:51;;;;;;;2.20;0.22;;;13.20;99.90;;;;;;4993040;28;20023;-74
2021/09/29 07:27:17;;;;;;;1.48;0.35;;;13.20;99.90;;;;;;4993724;28;20022;-73
2021/09/29 07:29:42;;;;;;;2.42;0.30;;;13.20;99.90;;;;;;4992936;28;20113;-73
2021/09/29 07:32:08;;;;;;;4.55;0.73;;;13.10;99.90;;;;;;4993139;28;20023;-75
2021/09/29 07:34:33;;;;;;;3.78;0.20;;;13.10;99.90;;;;;;4994052;28;20022;-73
2021/09/29 07:36:59;;;;;;;2.38;0.73;;;13.10;99.90;;;;;;4992645;28;20434;-73
2021/09/29 07:39:25;;;;;;;5.38;0.65;;;13.10;99.90;;;;;;4992784;28;20033;-74
2021/09/29 07:41:50;;;;;;;2.83;0.70;;;13.10;99.90;;;;;;4994159;28;20022;-73
2021/09/29 07:44:16;;;;;;;6.32;0.95;;;13.10;99.90;;;;;;4994093;28;20026;-73
2021/09/29 07:46:43;;;;;;;8.98;1.08;;;13.10;99.90;;;;;;4993835;28;20101;-75
2021/09/29 07:49:11;;;;;;;1.55;0.30;;;13.00;99.90;;;;;;4992805;28;20085;-76
2021/09/29 07:51:37;;;;;;;3.35;0.85;;;13.00;99.90;;;;;;4993741;28;20101;-76
2021/09/29 07:54:03;;;;;;;3.30;0.60;;;13.10;99.90;;;;;;4993893;28;20037;-77
2021/09/29 07:56:28;;;;;;;4.72;0.73;;;13.00;99.90;;;;;;4993966;28;20026;-75
2021/09/29 07:58:54;;;;;;;3.75;0.40;;;13.10;99.90;;;;;;4992550;28;20392;-75
2021/09/29 08:01:20;;;;;;;3.78;0.70;;;13.10;99.90;;;;;;4994210;28;20026;-75
2021/09/29 08:03:46;;;;;;;6.63;0.93;;;13.00;99.90;;;;;;4994102;28;20106;-74
2021/09/29 08:06:13;;;;;;;3.55;0.93;;;13.00;99.90;;;;;;4993737;28;20050;-74
2021/09/29 08:08:38;;;;;;;4.00;0.70;;;13.00;99.90;;;;;;4993750;28;20030;-73
2021/09/29 08:11:05;;;;;;;2.80;0.80;;;13.00;99.90;;;;;;4993855;28;20360;-75
2021/09/29 08:13:30;;;;;;;2.33;0.65;;;12.90;99.90;;;;;;4994152;28;20026;-75
2021/09/29 08:15:56;;;;;;;2.60;0.55;;;12.90;99.90;;;;;;4993702;28;20027;-74
2021/09/29 08:18:22;;;;;;;5.15;0.70;;;12.90;99.90;;;;;;4994104;28;20026;-75
2021/09/29 08:20:48;;;;;;;3.97;0.43;;;12.90;99.90;;;;;;4993690;28;20050;-74
2021/09/29 08:23:28;;;;;;;4.45;0.75;;;12.90;99.90;;;;;;4992353;28;20053;-74
2021/09/29 08:31:04;;;;;;;2.72;0.63;;;12.90;99.90;;;;;;4993977;28;20039;-74
2021/09/29 08:38:48;;;;;;;0.40;0.22;;;12.80;99.90;;;;;;4994334;28;20077;-74
2021/09/29 08:46:20;;;;;;;2.75;0.00;;;12.70;99.90;;;;;;4993588;28;20428;-74
2021/09/29 08:49:00;;;;;;;1.35;0.30;;;12.70;99.90;;;;;;4992013;28;20488;-73
2021/09/29 08:54:20;;;;;;;0.55;0.00;;;12.60;99.90;;;;;;4993841;28;20069;-74
2021/09/29 09:16:33;;;;;;;2.15;0.10;;;12.60;99.90;;;;;;4996873;28;20092;-74
2021/09/29 09:19:10;;;;;;;1.08;0.00;;;12.50;99.90;;;;;;4996434;28;20030;-75
2021/09/29 09:21:41;;;;;;;3.10;0.00;;;12.60;99.90;;;;;;4996907;28;20019;-76
2021/09/29 09:24:16;;;;;;;2.85;0.10;;;12.60;99.90;;;;;;4995290;28;20404;-73
2021/09/29 09:26:42;;;;;;;1.40;0.00;;;12.60;99.90;;;;;;4996598;28;20065;-74
2021/09/29 09:29:10;;;;;;;2.30;0.00;;;12.50;99.90;;;;;;4996720;28;20034;-73
2021/09/29 09:31:37;;;;;;;1.00;0.00;;;12.60;99.90;;;;;;4996423;28;20495;-72
2021/09/29 09:34:05;;;;;;;0.00;0.00;;;12.60;99.90;;;;;;4995033;28;20369;-73
2021/09/29 09:36:35;;;;;;;1.55;0.00;;;12.50;99.90;;;;;;4996120;28;20030;-73
2021/09/29 09:39:08;;;;;;;0.20;0.00;;;12.50;99.90;;;;;;4996013;28;20080;-73
2021/09/29 09:41:34;;;;;;;0.10;0.10;;;12.50;99.90;;;;;;4994892;28;20072;-73
2021/09/29 09:44:02;;;;;;;0.20;0.00;;;12.50;99.90;;;;;;4996182;28;20022;-73
2021/09/29 09:46:28;;;;;;;0.20;0.00;;;12.60;99.90;;;;;;4995990;28;20030;-73
2021/09/29 09:49:01;;;;;;;1.95;0.00;;;12.70;99.90;;;;;;4995894;28;20030;-73
2021/09/29 09:51:27;;;;;;;0.05;0.00;;;12.60;99.90;;;;;;4996246;28;20104;-73
2021/09/29 09:53:54;;;;;;;0.10;0.00;;;12.70;99.90;;;;;;4994652;28;20022;-73
2021/09/29 09:56:23;;;;;;;0.10;0.00;;;12.70;99.90;;;;;;4994547;28;20030;-74
2021/09/29 09:58:49;;;;;;;;;;;12.70;99.90;;;;;;4995987;28;20117;-73
2021/09/29 10:01:19;;;;;;;1.05;0.00;;;12.70;99.90;;;;;;4995801;28;19913;-73
2021/09/29 10:03:45;;;;;;;0.00;0.00;;;12.70;99.90;;;;;;4995751;28;20022;-73
2021/09/29 10:06:11;;;;;;;0.68;0.57;;;12.60;99.90;;;;;;4995614;28;20407;-74
2021/09/29 10:08:39;;;;;;;1.73;0.00;;;12.70;99.90;;;;;;4994286;28;20081;-74
2021/09/29 10:11:57;;;;;;;1.40;0.00;;;12.60;99.90;;;;;;4995690;28;20129;-75
2021/09/29 10:14:23;;;;;;;;;;;12.60;99.90;;;;;;4995320;28;20041;-74
2021/09/29 10:28:09;;;;;;;4.20;0.25;;;12.30;99.90;;;;;;4995701;28;20034;-74
2021/09/29 10:30:50;;;;;;;1.23;0.00;;;12.10;99.90;;;;;;4994051;28;20594;-75
2021/09/29 10:33:23;;;;;;;3.00;0.00;;;12.10;99.90;;;;;;4995110;28;20061;-74
2021/09/29 10:41:38;;;;;;;3.65;0.00;;;11.90;99.90;;;;;;4995332;28;20041;-74
2021/09/29 10:43:59;;;;;;;1.55;0.00;;;11.80;99.90;;;;;;4994711;28;20031;-74
2021/09/29 11:03:30;;;;;;;0.20;0.00;;;11.80;99.90;;;;;;4995372;28;20510;-74
2021/09/29 11:33:29;;;;;;;0.00;0.00;;;12.40;99.90;;;;;;4994422;28;20034;-74
2021/09/29 12:11:38;;;;;;;0.40;0.00;;;14.30;99.90;;;;;;4993796;28;20023;-74
2021/09/29 12:14:13;;;;;;;5.70;0.00;;;14.60;99.90;;;;;;4992494;28;20030;-74
2021/09/29 12:16:39;;;;;;;0.63;0.00;;;14.80;99.90;;;;;;4993956;28;20049;-74
2021/09/29 12:19:32;;;;;;;1.00;0.00;;;15.30;99.90;;;;;;4993585;28;20027;-73
2021/09/29 12:22:02;;;;;;;0.30;0.00;;;15.70;99.90;;;;;;4992441;28;20053;-74
2021/09/29 12:24:36;;;;;;;2.75;0.00;;;16.10;99.90;;;;;;4993677;28;20030;-73
2021/09/29 12:27:04;;;;;;;1.92;0.10;;;16.30;99.90;;;;;;4993555;28;20044;-73
2021/09/29 12:33:02;;;;;;;1.52;0.00;;;15.80;99.90;;;;;;4993897;28;20030;-73
2021/09/29 12:37:57;;;;;;;1.60;0.00;;;15.80;99.90;;;;;;4994792;28;20623;-73
2021/09/29 12:40:24;;;;;;;0.45;0.00;;;15.70;99.90;;;;;;4997542;28;20028;-72
2021/09/29 12:43:04;;;;;;;2.00;0.00;;;15.80;99.90;;;;;;4997356;28;20022;-72
2021/09/29 12:45:50;;;;;;;1.85;0.00;;;15.90;99.90;;;;;;4996042;28;20151;-75
2021/09/29 12:48:27;;;;;;;3.10;0.00;;;16.20;99.90;;;;;;4996823;28;20053;-74
2021/09/29 12:50:59;;;;;;;0.25;0.17;;;16.60;99.90;;;;;;4997673;28;20018;-75
2021/09/29 12:55:59;;;;;;;0.22;0.00;;;16.80;99.90;;;;;;4997360;28;20058;-75
2021/09/29 12:58:27;;;;;;;3.88;0.90;;;16.40;99.90;;;;;;4997164;28;20435;-70
2021/09/29 13:00:53;;;;;;;2.05;0.00;;;16.40;99.90;;;;;;4996875;28;20084;-73
2021/09/29 13:03:19;;;;;;;0.08;0.00;;;16.40;99.90;;;;;;4996030;28;20113;-72
2021/09/29 13:05:44;;;;;;;1.17;0.30;;;16.20;99.90;;;;;;4996820;28;20054;-72
2021/09/29 13:08:10;;;;;;;2.72;0.00;;;16.20;99.90;;;;;;4996890;28;20030;-74
2021/09/29 13:10:36;;;;;;;4.68;0.00;;;16.40;99.90;;;;;;4995468;28;20554;-73
2021/09/29 13:13:02;;;;;;;3.90;0.00;;;16.80;99.90;;;;;;4996598;28;20036;-73
2021/09/29 13:15:28;;;;;;;1.08;0.00;;;17.20;99.90;;;;;;4996595;28;20058;-73
2021/09/29 13:17:55;;;;;;;6.72;0.60;;;17.50;99.90;;;;;;4996041;28;20030;-73
2021/09/29 13:20:24;;;;;;;0.20;0.00;;;17.60;99.90;;;;;;4995253;28;20471;-73
2021/09/29 13:23:01;;;;;;;0.93;0.00;;;17.40;99.90;;;;;;4995310;28;20442;-73
2021/09/29 13:38:55;;;;;;;6.18;0.00;;;17.90;99.90;;;;;;4996231;28;20115;-74
2021/09/29 13:41:21;;;;;;;3.08;0.00;;;17.70;99.90;;;;;;4995164;28;20115;-74
2021/09/29 13:43:46;;;;;;;1.00;0.00;;;17.80;99.90;;;;;;4996423;28;20463;-74
2021/09/29 13:46:12;;;;;;;1.98;0.00;;;17.90;99.90;;;;;;4994911;28;20529;-74
2021/09/29 13:48:37;;;;;;;2.90;0.10;;;17.70;99.90;;;;;;4994536;28;20442;-73
2021/09/29 13:51:03;;;;;;;0.40;0.10;;;17.10;99.90;;;;;;4996829;28;20022;-73
2021/09/29 13:53:30;;;;;;;0.00;0.00;;;16.60;99.90;;;;;;4998255;28;20022;-73
2021/09/29 13:55:58;;;;;;;0.00;0.00;;;16.10;99.90;;;;;;4997899;28;20023;-73
2021/09/29 13:58:44;;;;;;;6.25;0.00;;;15.60;99.90;;;;;;4997924;28;20095;-73
2021/09/29 14:01:38;;;;;;;1.15;0.00;;;15.00;99.90;;;;;;4999032;28;20022;-73
2021/09/29 14:15:27;;;;;;;0.55;0.08;;;14.50;99.90;;;;;;4999232;28;20062;-73
2021/09/29 14:31:16;;;;;;;1.48;0.00;;;17.10;99.90;;;;;;4999079;28;20551;-73
2021/09/29 14:33:48;;;;;;;1.75;0.00;;;17.10;99.90;;;;;;4998928;28;20027;-73
2021/09/29 14:36:17;;;;;;;1.75;0.43;;;16.80;99.90;;;;;;4998091;28;20022;-73
2021/09/29 14:38:45;;;;;;;;;;;16.40;99.90;;;;;;4998927;28;20030;-73
2021/09/29 14:41:10;;;;;;;5.85;0.43;;;16.00;99.90;;;;;;4998330;28;19916;-73
2021/09/29 14:43:36;;;;;;;0.00;0.00;;;15.70;99.90;;;;;;4998262;28;20022;-73
2021/09/29 14:46:01;;;;;;;0.98;0.00;;;15.40;99.90;;;;;;4998682;28;20102;-74
2021/09/29 14:48:27;;;;;;;3.70;0.28;;;15.10;99.90;;;;;;4996554;28;20403;-74
2021/09/29 14:50:53;;;;;;;1.15;0.00;;;14.90;99.90;;;;;;4998661;28;20491;-74
2021/09/29 14:53:20;;;;;;;0.28;0.00;;;14.70;99.90;;;;;;4998522;28;20023;-74
2021/09/29 14:55:46;;;;;;;0.10;0.00;;;14.50;99.90;;;;;;4997343;28;20468;-73
2021/09/29 14:58:11;;;;;;;6.72;0.28;;;14.30;99.90;;;;;;4996842;28;20029;-73
2021/09/29 15:00:37;;;;;;;3.60;0.00;;;14.00;99.90;;;;;;4997599;28;20026;-74
2021/09/29 15:03:03;;;;;;;7.30;0.75;;;13.50;99.90;;;;;;4997768;28;20022;-74
2021/09/29 15:05:30;;;;;;;1.40;0.08;;;13.00;99.90;;;;;;4997894;28;20014;-73
2021/09/29 15:07:55;;;;;;;1.23;0.00;;;12.60;99.90;;;;;;4997365;28;20399;-73
2021/09/29 15:10:21;;;;;;;2.42;0.00;;;12.10;99.90;;;;;;4997885;28;20018;-74
2021/09/29 15:12:50;;;;;;;0.00;0.00;;;12.00;99.90;;;;;;4997571;28;20048;-73
2021/09/29 15:17:55;;;;;;;0.77;0.00;;;11.70;99.90;;;;;;4998197;28;20031;-73
2021/09/29 15:28:55;;;;;;;2.20;0.00;;;12.10;99.90;;;;;;4998356;28;20030;-73
2021/09/29 15:47:49;;;;;;;2.72;0.10;;;11.70;99.90;;;;;;4996791;28;20032;-74
2021/09/29 15:52:54;;;;;;;1.00;0.00;;;11.60;99.90;;;;;;4998023;28;20057;-74
2021/09/29 15:55:26;;;;;;;1.60;0.00;;;11.50;99.90;;;;;;4995738;28;20022;-74
2021/09/29 16:00:50;;;;;;;0.47;0.38;;;11.40;99.90;;;;;;4994762;28;20030;-74
2021/09/29 16:11:18;;;;;;;0.63;0.00;;;11.20;99.90;;;;;;4994186;28;20026;-74
2021/09/29 16:19:58;;;;;;;5.38;0.00;;;11.30;99.90;;;;;;4997578;28;20042;-74
2021/09/29 16:22:02;;;;;;;3.20;0.20;;;11.30;99.90;;;;;;4997137;28;20022;-74
2021/09/29 16:30:05;;;;;;;3.70;0.00;;;11.30;99.90;;;;;;4997454;28;20089;-75
2021/09/29 16:32:55;;;;;;;2.22;0.00;;;11.30;99.90;;;;;;4997618;28;20026;-72
2021/09/29 16:35:30;;;;;;;1.27;0.00;;;11.30;99.90;;;;;;4997567;28;20044;-73
2021/09/29 16:37:58;;;;;;;4.03;0.00;;;11.20;99.90;;;;;;4997190;28;20018;-73
2021/09/29 16:40:23;;;;;;;2.10;0.00;;;11.20;99.90;;;;;;4996871;28;20027;-74
2021/09/29 16:42:54;;;;;;;1.38;0.10;;;11.20;99.90;;;;;;4996515;28;20022;-74
2021/09/29 16:45:23;;;;;;;0.88;0.00;;;11.30;99.90;;;;;;4998628;28;20368;-74